sensor_id;sensor_type;location;lat;lon;timestamp;temperature;humidity
40085;DHT22;25786;51.504;7.344;2022-10-16T00:02:17;13.90;92.00
40085;DHT22;25786;51.504;7.344;2022-10-16T00:04:43;14.00;92.20
40085;DHT22;25786;51.504;7.344;2022-10-16T00:07:08;14.00;92.20
40085;DHT22;25786;51.504;7.344;2022-10-16T00:09:33;14.00;92.10
40085;DHT22;25786;51.504;7.344;2022-10-16T00:11:59;14.00;92.00
40085;DHT22;25786;51.504;7.344;2022-10-16T00:14:24;14.00;91.90
40085;DHT22;25786;51.504;7.344;2022-10-16T00:16:50;14.00;91.80
40085;DHT22;25786;51.504;7.344;2022-10-16T00:19:15;13.90;91.80
40085;DHT22;25786;51.504;7.344;2022-10-16T00:21:41;13.90;91.80
40085;DHT22;25786;51.504;7.344;2022-10-16T00:24:07;13.80;91.80
40085;DHT22;25786;51.504;7.344;2022-10-16T00:26:34;13.80;91.80
40085;DHT22;25786;51.504;7.344;2022-10-16T00:29:00;13.80;91.70
40085;DHT22;25786;51.504;7.344;2022-10-16T00:31:25;13.80;91.90
40085;DHT22;25786;51.504;7.344;2022-10-16T00:33:51;13.80;91.90
40085;DHT22;25786;51.504;7.344;2022-10-16T00:36:17;13.80;91.90
40085;DHT22;25786;51.504;7.344;2022-10-16T00:38:43;13.80;91.90
40085;DHT22;25786;51.504;7.344;2022-10-16T00:41:11;13.80;91.90
40085;DHT22;25786;51.504;7.344;2022-10-16T00:43:42;13.80;91.80
40085;DHT22;25786;51.504;7.344;2022-10-16T00:46:19;13.80;91.90
40085;DHT22;25786;51.504;7.344;2022-10-16T00:48:56;13.80;91.90
40085;DHT22;25786;51.504;7.344;2022-10-16T00:51:23;13.80;91.80
40085;DHT22;25786;51.504;7.344;2022-10-16T00:53:49;13.90;91.80
40085;DHT22;25786;51.504;7.344;2022-10-16T00:56:15;13.90;91.70
40085;DHT22;25786;51.504;7.344;2022-10-16T00:58:41;13.90;91.80
40085;DHT22;25786;51.504;7.344;2022-10-16T01:01:06;13.80;91.60
40085;DHT22;25786;51.504;7.344;2022-10-16T01:03:33;13.90;91.80
40085;DHT22;25786;51.504;7.344;2022-10-16T01:06:02;13.80;91.50
40085;DHT22;25786;51.504;7.344;2022-10-16T01:08:42;13.90;91.50
40085;DHT22;25786;51.504;7.344;2022-10-16T01:11:19;13.80;91.40
40085;DHT22;25786;51.504;7.344;2022-10-16T01:13:47;13.80;91.30
40085;DHT22;25786;51.504;7.344;2022-10-16T01:16:15;13.80;91.30
40085;DHT22;25786;51.504;7.344;2022-10-16T01:18:43;13.80;91.40
40085;DHT22;25786;51.504;7.344;2022-10-16T01:21:13;13.70;91.30
40085;DHT22;25786;51.504;7.344;2022-10-16T01:31:17;13.70;91.30
40085;DHT22;25786;51.504;7.344;2022-10-16T01:33:44;13.60;91.30
40085;DHT22;25786;51.504;7.344;2022-10-16T01:36:15;13.60;91.40
40085;DHT22;25786;51.504;7.344;2022-10-16T01:38:42;13.60;91.50
40085;DHT22;25786;51.504;7.344;2022-10-16T01:41:16;13.60;91.40
40085;DHT22;25786;51.504;7.344;2022-10-16T01:43:45;13.60;91.50
40085;DHT22;25786;51.504;7.344;2022-10-16T01:46:12;13.40;91.60
40085;DHT22;25786;51.504;7.344;2022-10-16T01:48:38;13.50;91.90
40085;DHT22;25786;51.504;7.344;2022-10-16T01:51:05;13.50;91.80
40085;DHT22;25786;51.504;7.344;2022-10-16T01:53:32;13.50;91.80
40085;DHT22;25786;51.504;7.344;2022-10-16T01:55:57;13.50;91.70
40085;DHT22;25786;51.504;7.344;2022-10-16T01:58:24;13.50;91.70
40085;DHT22;25786;51.504;7.344;2022-10-16T02:00:50;13.40;92.00
40085;DHT22;25786;51.504;7.344;2022-10-16T02:03:17;13.40;91.90
40085;DHT22;25786;51.504;7.344;2022-10-16T02:05:45;13.40;91.70
40085;DHT22;25786;51.504;7.344;2022-10-16T02:08:11;13.50;91.90
40085;DHT22;25786;51.504;7.344;2022-10-16T02:10:37;13.50;91.80
40085;DHT22;25786;51.504;7.344;2022-10-16T02:13:06;13.50;92.00
40085;DHT22;25786;51.504;7.344;2022-10-16T02:15:31;13.50;91.90
40085;DHT22;25786;51.504;7.344;2022-10-16T02:17:57;13.50;91.70
40085;DHT22;25786;51.504;7.344;2022-10-16T02:20:24;13.50;91.90
40085;DHT22;25786;51.504;7.344;2022-10-16T02:22:50;13.50;91.80
40085;DHT22;25786;51.504;7.344;2022-10-16T02:25:22;13.60;91.80
40085;DHT22;25786;51.504;7.344;2022-10-16T02:27:56;13.70;91.60
40085;DHT22;25786;51.504;7.344;2022-10-16T02:32:48;13.80;91.60
40085;DHT22;25786;51.504;7.344;2022-10-16T02:35:17;13.70;91.30
40085;DHT22;25786;51.504;7.344;2022-10-16T02:37:43;13.80;91.40
40085;DHT22;25786;51.504;7.344;2022-10-16T02:40:09;13.80;91.20
40085;DHT22;25786;51.504;7.344;2022-10-16T02:42:36;13.80;90.80
40085;DHT22;25786;51.504;7.344;2022-10-16T02:45:02;13.70;90.80
40085;DHT22;25786;51.504;7.344;2022-10-16T02:47:28;13.70;90.70
40085;DHT22;25786;51.504;7.344;2022-10-16T02:49:54;13.80;90.90
40085;DHT22;25786;51.504;7.344;2022-10-16T02:52:19;13.90;90.50
40085;DHT22;25786;51.504;7.344;2022-10-16T02:54:45;13.90;90.60
40085;DHT22;25786;51.504;7.344;2022-10-16T02:57:10;13.80;90.80
40085;DHT22;25786;51.504;7.344;2022-10-16T02:59:37;13.80;91.00
40085;DHT22;25786;51.504;7.344;2022-10-16T03:02:02;13.90;91.00
40085;DHT22;25786;51.504;7.344;2022-10-16T03:04:28;13.90;90.90
40085;DHT22;25786;51.504;7.344;2022-10-16T03:06:53;13.80;91.00
40085;DHT22;25786;51.504;7.344;2022-10-16T03:09:19;13.90;91.10
40085;DHT22;25786;51.504;7.344;2022-10-16T03:11:44;13.80;91.10
40085;DHT22;25786;51.504;7.344;2022-10-16T03:14:10;13.80;91.10
40085;DHT22;25786;51.504;7.344;2022-10-16T03:16:35;13.80;91.30
40085;DHT22;25786;51.504;7.344;2022-10-16T03:19:00;13.80;91.20
40085;DHT22;25786;51.504;7.344;2022-10-16T03:21:26;13.70;91.20
40085;DHT22;25786;51.504;7.344;2022-10-16T03:23:51;13.80;91.30
40085;DHT22;25786;51.504;7.344;2022-10-16T03:26:17;13.80;91.30
40085;DHT22;25786;51.504;7.344;2022-10-16T03:28:42;13.80;91.40
40085;DHT22;25786;51.504;7.344;2022-10-16T03:31:08;13.70;91.20
40085;DHT22;25786;51.504;7.344;2022-10-16T03:33:33;13.80;91.30
40085;DHT22;25786;51.504;7.344;2022-10-16T03:35:59;13.70;91.00
40085;DHT22;25786;51.504;7.344;2022-10-16T03:38:25;13.70;91.30
40085;DHT22;25786;51.504;7.344;2022-10-16T03:40:50;13.70;91.20
40085;DHT22;25786;51.504;7.344;2022-10-16T03:43:16;13.70;91.00
40085;DHT22;25786;51.504;7.344;2022-10-16T03:45:42;13.80;90.90
40085;DHT22;25786;51.504;7.344;2022-10-16T03:48:07;13.70;91.00
40085;DHT22;25786;51.504;7.344;2022-10-16T03:50:33;13.70;91.00
40085;DHT22;25786;51.504;7.344;2022-10-16T03:52:58;13.70;90.90
40085;DHT22;25786;51.504;7.344;2022-10-16T03:55:24;13.70;90.90
40085;DHT22;25786;51.504;7.344;2022-10-16T03:57:49;13.70;90.60
40085;DHT22;25786;51.504;7.344;2022-10-16T04:00:14;13.60;90.40
40085;DHT22;25786;51.504;7.344;2022-10-16T04:02:40;13.70;90.60
40085;DHT22;25786;51.504;7.344;2022-10-16T04:05:06;13.70;90.10
40085;DHT22;25786;51.504;7.344;2022-10-16T04:07:31;13.60;89.90
40085;DHT22;25786;51.504;7.344;2022-10-16T04:09:57;13.60;90.00
40085;DHT22;25786;51.504;7.344;2022-10-16T04:12:24;13.60;90.00
40085;DHT22;25786;51.504;7.344;2022-10-16T04:14:49;13.60;89.90
40085;DHT22;25786;51.504;7.344;2022-10-16T04:17:15;13.60;89.60
40085;DHT22;25786;51.504;7.344;2022-10-16T04:19:40;13.50;89.70
40085;DHT22;25786;51.504;7.344;2022-10-16T04:22:05;13.50;89.70
40085;DHT22;25786;51.504;7.344;2022-10-16T04:24:31;13.50;89.80
40085;DHT22;25786;51.504;7.344;2022-10-16T04:26:56;13.50;90.00
40085;DHT22;25786;51.504;7.344;2022-10-16T04:29:22;13.50;89.90
40085;DHT22;25786;51.504;7.344;2022-10-16T04:31:47;13.50;89.90
40085;DHT22;25786;51.504;7.344;2022-10-16T04:34:13;13.50;90.00
40085;DHT22;25786;51.504;7.344;2022-10-16T04:36:38;13.50;89.40
40085;DHT22;25786;51.504;7.344;2022-10-16T04:39:03;13.60;89.10
40085;DHT22;25786;51.504;7.344;2022-10-16T04:41:29;13.60;89.20
40085;DHT22;25786;51.504;7.344;2022-10-16T04:43:54;13.60;88.90
40085;DHT22;25786;51.504;7.344;2022-10-16T04:46:20;13.50;89.00
40085;DHT22;25786;51.504;7.344;2022-10-16T04:48:45;13.50;89.20
40085;DHT22;25786;51.504;7.344;2022-10-16T04:51:12;13.60;88.90
40085;DHT22;25786;51.504;7.344;2022-10-16T04:53:37;13.50;89.10
40085;DHT22;25786;51.504;7.344;2022-10-16T04:56:03;13.60;88.80
40085;DHT22;25786;51.504;7.344;2022-10-16T04:58:28;13.50;88.60
40085;DHT22;25786;51.504;7.344;2022-10-16T05:00:54;13.50;88.60
40085;DHT22;25786;51.504;7.344;2022-10-16T05:03:19;13.50;88.90
40085;DHT22;25786;51.504;7.344;2022-10-16T05:05:45;13.50;88.70
40085;DHT22;25786;51.504;7.344;2022-10-16T05:08:12;13.50;88.70
40085;DHT22;25786;51.504;7.344;2022-10-16T05:10:37;13.50;88.80
40085;DHT22;25786;51.504;7.344;2022-10-16T05:13:03;13.50;88.90
40085;DHT22;25786;51.504;7.344;2022-10-16T05:15:28;13.50;88.50
40085;DHT22;25786;51.504;7.344;2022-10-16T05:17:55;13.50;88.70
40085;DHT22;25786;51.504;7.344;2022-10-16T05:20:21;13.60;88.70
40085;DHT22;25786;51.504;7.344;2022-10-16T05:22:46;13.60;88.40
40085;DHT22;25786;51.504;7.344;2022-10-16T05:25:12;13.70;87.60
40085;DHT22;25786;51.504;7.344;2022-10-16T05:27:37;13.70;88.30
40085;DHT22;25786;51.504;7.344;2022-10-16T05:30:03;13.70;88.50
40085;DHT22;25786;51.504;7.344;2022-10-16T05:32:28;13.70;88.60
40085;DHT22;25786;51.504;7.344;2022-10-16T05:34:54;13.70;88.50
40085;DHT22;25786;51.504;7.344;2022-10-16T05:37:19;13.70;88.30
40085;DHT22;25786;51.504;7.344;2022-10-16T05:39:45;13.80;88.00
40085;DHT22;25786;51.504;7.344;2022-10-16T05:42:10;13.70;87.70
40085;DHT22;25786;51.504;7.344;2022-10-16T05:44:36;13.60;87.80
40085;DHT22;25786;51.504;7.344;2022-10-16T05:47:01;13.70;87.60
40085;DHT22;25786;51.504;7.344;2022-10-16T05:49:27;13.70;87.40
40085;DHT22;25786;51.504;7.344;2022-10-16T05:51:52;13.70;87.60
40085;DHT22;25786;51.504;7.344;2022-10-16T05:54:18;13.70;87.60
40085;DHT22;25786;51.504;7.344;2022-10-16T05:56:43;13.60;88.10
40085;DHT22;25786;51.504;7.344;2022-10-16T05:59:09;13.70;88.10
40085;DHT22;25786;51.504;7.344;2022-10-16T06:01:34;13.70;87.80
40085;DHT22;25786;51.504;7.344;2022-10-16T06:04:00;13.60;87.90
40085;DHT22;25786;51.504;7.344;2022-10-16T06:06:26;13.70;88.10
40085;DHT22;25786;51.504;7.344;2022-10-16T06:08:53;13.70;88.00
40085;DHT22;25786;51.504;7.344;2022-10-16T06:11:19;13.60;88.50
40085;DHT22;25786;51.504;7.344;2022-10-16T06:13:48;13.60;88.80
40085;DHT22;25786;51.504;7.344;2022-10-16T06:16:14;13.70;88.60
40085;DHT22;25786;51.504;7.344;2022-10-16T06:18:39;13.70;88.50
40085;DHT22;25786;51.504;7.344;2022-10-16T06:21:11;13.70;88.20
40085;DHT22;25786;51.504;7.344;2022-10-16T06:23:37;13.60;88.30
40085;DHT22;25786;51.504;7.344;2022-10-16T06:26:06;13.70;88.50
40085;DHT22;25786;51.504;7.344;2022-10-16T06:28:32;13.60;88.90
40085;DHT22;25786;51.504;7.344;2022-10-16T06:31:01;13.60;89.10
40085;DHT22;25786;51.504;7.344;2022-10-16T06:33:27;13.70;88.20
40085;DHT22;25786;51.504;7.344;2022-10-16T06:35:52;13.70;88.30
40085;DHT22;25786;51.504;7.344;2022-10-16T06:38:18;13.60;88.80
40085;DHT22;25786;51.504;7.344;2022-10-16T06:40:43;13.70;88.60
40085;DHT22;25786;51.504;7.344;2022-10-16T06:43:09;13.70;89.10
40085;DHT22;25786;51.504;7.344;2022-10-16T06:45:34;13.60;88.80
40085;DHT22;25786;51.504;7.344;2022-10-16T06:48:00;13.60;89.00
40085;DHT22;25786;51.504;7.344;2022-10-16T06:50:25;13.60;89.40
40085;DHT22;25786;51.504;7.344;2022-10-16T06:52:50;13.70;88.90
40085;DHT22;25786;51.504;7.344;2022-10-16T06:55:16;13.70;88.80
40085;DHT22;25786;51.504;7.344;2022-10-16T06:57:42;13.80;88.90
40085;DHT22;25786;51.504;7.344;2022-10-16T07:00:08;13.80;88.90
40085;DHT22;25786;51.504;7.344;2022-10-16T07:02:33;13.90;88.80
40085;DHT22;25786;51.504;7.344;2022-10-16T07:04:59;13.90;88.70
40085;DHT22;25786;51.504;7.344;2022-10-16T07:07:24;13.80;88.70
40085;DHT22;25786;51.504;7.344;2022-10-16T07:09:51;13.80;88.90
40085;DHT22;25786;51.504;7.344;2022-10-16T07:12:17;13.90;88.40
40085;DHT22;25786;51.504;7.344;2022-10-16T07:14:42;14.00;88.30
40085;DHT22;25786;51.504;7.344;2022-10-16T07:17:08;14.00;88.40
40085;DHT22;25786;51.504;7.344;2022-10-16T07:19:33;13.90;88.50
40085;DHT22;25786;51.504;7.344;2022-10-16T07:21:59;13.90;88.60
40085;DHT22;25786;51.504;7.344;2022-10-16T07:24:24;13.90;88.60
40085;DHT22;25786;51.504;7.344;2022-10-16T07:26:50;14.00;88.50
40085;DHT22;25786;51.504;7.344;2022-10-16T07:29:17;14.00;88.50
40085;DHT22;25786;51.504;7.344;2022-10-16T07:31:45;14.00;88.70
40085;DHT22;25786;51.504;7.344;2022-10-16T07:34:12;14.00;88.50
40085;DHT22;25786;51.504;7.344;2022-10-16T07:36:38;14.00;88.50
40085;DHT22;25786;51.504;7.344;2022-10-16T07:39:03;14.00;88.20
40085;DHT22;25786;51.504;7.344;2022-10-16T07:41:29;14.00;88.30
40085;DHT22;25786;51.504;7.344;2022-10-16T07:43:55;14.00;88.10
40085;DHT22;25786;51.504;7.344;2022-10-16T07:46:22;14.10;88.00
40085;DHT22;25786;51.504;7.344;2022-10-16T07:48:48;14.10;88.00
40085;DHT22;25786;51.504;7.344;2022-10-16T07:51:17;14.10;87.90
40085;DHT22;25786;51.504;7.344;2022-10-16T07:53:43;14.10;88.20
40085;DHT22;25786;51.504;7.344;2022-10-16T07:56:09;14.10;88.20
40085;DHT22;25786;51.504;7.344;2022-10-16T07:58:35;14.20;88.10
40085;DHT22;25786;51.504;7.344;2022-10-16T08:01:06;14.30;88.40
40085;DHT22;25786;51.504;7.344;2022-10-16T08:03:32;14.50;87.80
40085;DHT22;25786;51.504;7.344;2022-10-16T08:05:58;14.50;87.70
40085;DHT22;25786;51.504;7.344;2022-10-16T08:08:24;14.60;86.90
40085;DHT22;25786;51.504;7.344;2022-10-16T08:10:50;14.80;86.70
40085;DHT22;25786;51.504;7.344;2022-10-16T08:13:15;14.90;85.70
40085;DHT22;25786;51.504;7.344;2022-10-16T08:15:42;14.90;85.90
40085;DHT22;25786;51.504;7.344;2022-10-16T08:18:09;15.00;85.70
40085;DHT22;25786;51.504;7.344;2022-10-16T08:20:34;15.00;85.60
40085;DHT22;25786;51.504;7.344;2022-10-16T08:23:00;15.20;85.20
40085;DHT22;25786;51.504;7.344;2022-10-16T08:25:26;15.20;84.60
40085;DHT22;25786;51.504;7.344;2022-10-16T08:27:51;15.30;84.30
40085;DHT22;25786;51.504;7.344;2022-10-16T08:30:18;15.30;83.80
40085;DHT22;25786;51.504;7.344;2022-10-16T08:32:44;15.30;83.70
40085;DHT22;25786;51.504;7.344;2022-10-16T08:35:10;15.30;84.00
40085;DHT22;25786;51.504;7.344;2022-10-16T08:37:36;15.40;84.20
40085;DHT22;25786;51.504;7.344;2022-10-16T08:40:02;15.30;83.80
40085;DHT22;25786;51.504;7.344;2022-10-16T08:45:08;15.50;83.50
40085;DHT22;25786;51.504;7.344;2022-10-16T08:50:09;15.60;81.80
40085;DHT22;25786;51.504;7.344;2022-10-16T08:52:35;15.60;81.20
40085;DHT22;25786;51.504;7.344;2022-10-16T08:55:04;15.60;80.60
40085;DHT22;25786;51.504;7.344;2022-10-16T08:57:29;15.60;80.50
40085;DHT22;25786;51.504;7.344;2022-10-16T08:59:57;15.70;80.20
40085;DHT22;25786;51.504;7.344;2022-10-16T09:02:38;15.80;80.90
40085;DHT22;25786;51.504;7.344;2022-10-16T09:05:14;15.80;80.60
40085;DHT22;25786;51.504;7.344;2022-10-16T09:07:46;15.80;80.70
40085;DHT22;25786;51.504;7.344;2022-10-16T09:10:18;15.80;80.60
40085;DHT22;25786;51.504;7.344;2022-10-16T09:18:05;15.90;78.50
40085;DHT22;25786;51.504;7.344;2022-10-16T09:25:28;16.00;77.40
40085;DHT22;25786;51.504;7.344;2022-10-16T09:27:56;16.00;77.70
40085;DHT22;25786;51.504;7.344;2022-10-16T09:30:22;16.00;77.60
40085;DHT22;25786;51.504;7.344;2022-10-16T09:32:50;16.10;76.70
40085;DHT22;25786;51.504;7.344;2022-10-16T09:35:20;16.10;77.10
40085;DHT22;25786;51.504;7.344;2022-10-16T09:37:47;16.10;77.20
40085;DHT22;25786;51.504;7.344;2022-10-16T09:40:30;16.20;76.70
40085;DHT22;25786;51.504;7.344;2022-10-16T09:43:01;16.20;76.70
40085;DHT22;25786;51.504;7.344;2022-10-16T09:45:27;16.40;76.80
40085;DHT22;25786;51.504;7.344;2022-10-16T09:47:52;16.50;76.70
40085;DHT22;25786;51.504;7.344;2022-10-16T09:50:25;16.60;75.50
40085;DHT22;25786;51.504;7.344;2022-10-16T09:53:02;16.70;76.10
40085;DHT22;25786;51.504;7.344;2022-10-16T09:55:28;16.80;74.70
40085;DHT22;25786;51.504;7.344;2022-10-16T09:57:54;16.80;75.20
40085;DHT22;25786;51.504;7.344;2022-10-16T10:00:20;16.70;75.30
40085;DHT22;25786;51.504;7.344;2022-10-16T10:02:46;16.70;74.80
40085;DHT22;25786;51.504;7.344;2022-10-16T10:05:24;16.60;75.00
40085;DHT22;25786;51.504;7.344;2022-10-16T10:07:54;16.60;74.70
40085;DHT22;25786;51.504;7.344;2022-10-16T10:10:22;16.50;75.70
40085;DHT22;25786;51.504;7.344;2022-10-16T10:12:48;16.60;75.20
40085;DHT22;25786;51.504;7.344;2022-10-16T10:15:13;16.60;75.30
40085;DHT22;25786;51.504;7.344;2022-10-16T10:17:49;16.70;75.60
40085;DHT22;25786;51.504;7.344;2022-10-16T10:20:34;16.90;74.00
40085;DHT22;25786;51.504;7.344;2022-10-16T10:23:00;16.90;74.10
40085;DHT22;25786;51.504;7.344;2022-10-16T10:30:50;16.90;74.00
40085;DHT22;25786;51.504;7.344;2022-10-16T10:35:47;16.90;74.60
40085;DHT22;25786;51.504;7.344;2022-10-16T10:41:22;17.10;74.30
40085;DHT22;25786;51.504;7.344;2022-10-16T10:54:22;17.00;73.10
40085;DHT22;25786;51.504;7.344;2022-10-16T10:57:00;17.10;71.70
40085;DHT22;25786;51.504;7.344;2022-10-16T11:02:04;17.10;71.90
40085;DHT22;25786;51.504;7.344;2022-10-16T11:07:04;17.20;71.60
40085;DHT22;25786;51.504;7.344;2022-10-16T11:09:38;17.20;71.80
40085;DHT22;25786;51.504;7.344;2022-10-16T11:12:09;17.30;72.00
40085;DHT22;25786;51.504;7.344;2022-10-16T11:14:40;17.40;71.50
40085;DHT22;25786;51.504;7.344;2022-10-16T11:17:13;17.60;71.00
40085;DHT22;25786;51.504;7.344;2022-10-16T11:22:17;17.90;69.30
40085;DHT22;25786;51.504;7.344;2022-10-16T11:24:49;17.90;69.50
40085;DHT22;25786;51.504;7.344;2022-10-16T11:27:18;18.00;69.40
40085;DHT22;25786;51.504;7.344;2022-10-16T11:29:49;18.10;69.90
40085;DHT22;25786;51.504;7.344;2022-10-16T11:32:29;18.00;69.20
40085;DHT22;25786;51.504;7.344;2022-10-16T11:34:58;18.10;69.30
40085;DHT22;25786;51.504;7.344;2022-10-16T11:37:36;18.10;68.60
40085;DHT22;25786;51.504;7.344;2022-10-16T11:40:37;18.10;68.10
40085;DHT22;25786;51.504;7.344;2022-10-16T11:43:11;18.20;68.40
40085;DHT22;25786;51.504;7.344;2022-10-16T11:45:57;18.20;67.90
40085;DHT22;25786;51.504;7.344;2022-10-16T11:55:59;18.20;68.00
40085;DHT22;25786;51.504;7.344;2022-10-16T11:58:26;18.30;67.60
40085;DHT22;25786;51.504;7.344;2022-10-16T12:03:30;18.50;67.20
40085;DHT22;25786;51.504;7.344;2022-10-16T12:06:01;18.50;67.60
40085;DHT22;25786;51.504;7.344;2022-10-16T12:08:33;18.50;65.60
40085;DHT22;25786;51.504;7.344;2022-10-16T12:11:06;18.50;65.80
40085;DHT22;25786;51.504;7.344;2022-10-16T12:13:40;18.60;65.60
40085;DHT22;25786;51.504;7.344;2022-10-16T12:16:06;18.60;65.20
40085;DHT22;25786;51.504;7.344;2022-10-16T12:18:33;18.60;65.10
40085;DHT22;25786;51.504;7.344;2022-10-16T12:20:59;18.50;65.50
40085;DHT22;25786;51.504;7.344;2022-10-16T12:23:30;18.40;65.50
40085;DHT22;25786;51.504;7.344;2022-10-16T12:25:56;18.30;66.10
40085;DHT22;25786;51.504;7.344;2022-10-16T12:28:22;18.30;65.80
40085;DHT22;25786;51.504;7.344;2022-10-16T12:30:55;18.30;66.10
40085;DHT22;25786;51.504;7.344;2022-10-16T12:33:32;18.30;66.30
40085;DHT22;25786;51.504;7.344;2022-10-16T12:35:59;18.10;67.10
40085;DHT22;25786;51.504;7.344;2022-10-16T12:38:30;18.10;68.20
40085;DHT22;25786;51.504;7.344;2022-10-16T12:43:27;18.20;66.50
40085;DHT22;25786;51.504;7.344;2022-10-16T12:48:48;18.30;67.30
40085;DHT22;25786;51.504;7.344;2022-10-16T12:54:00;18.50;67.20
40085;DHT22;25786;51.504;7.344;2022-10-16T12:56:36;18.60;66.50
40085;DHT22;25786;51.504;7.344;2022-10-16T12:59:09;18.70;66.00
40085;DHT22;25786;51.504;7.344;2022-10-16T13:02:03;18.80;66.00
40085;DHT22;25786;51.504;7.344;2022-10-16T13:07:20;18.70;65.80
40085;DHT22;25786;51.504;7.344;2022-10-16T13:20:26;18.50;67.10
40085;DHT22;25786;51.504;7.344;2022-10-16T13:23:02;18.40;65.00
40085;DHT22;25786;51.504;7.344;2022-10-16T13:25:39;18.40;64.60
40085;DHT22;25786;51.504;7.344;2022-10-16T13:28:07;18.30;65.10
40085;DHT22;25786;51.504;7.344;2022-10-16T13:36:06;18.20;66.80
40085;DHT22;25786;51.504;7.344;2022-10-16T13:38:32;18.20;65.10
40085;DHT22;25786;51.504;7.344;2022-10-16T13:43:32;18.20;67.20
40085;DHT22;25786;51.504;7.344;2022-10-16T13:46:03;18.10;66.70
40085;DHT22;25786;51.504;7.344;2022-10-16T13:48:29;18.10;67.50
40085;DHT22;25786;51.504;7.344;2022-10-16T13:51:01;18.20;67.60
40085;DHT22;25786;51.504;7.344;2022-10-16T13:53:26;18.00;68.10
40085;DHT22;25786;51.504;7.344;2022-10-16T13:55:52;17.90;67.80
40085;DHT22;25786;51.504;7.344;2022-10-16T13:58:17;18.00;67.70
40085;DHT22;25786;51.504;7.344;2022-10-16T14:00:53;18.00;67.40
40085;DHT22;25786;51.504;7.344;2022-10-16T14:03:19;17.90;67.70
40085;DHT22;25786;51.504;7.344;2022-10-16T14:05:49;18.00;68.10
40085;DHT22;25786;51.504;7.344;2022-10-16T14:08:15;18.00;68.00
40085;DHT22;25786;51.504;7.344;2022-10-16T14:10:40;18.10;68.20
40085;DHT22;25786;51.504;7.344;2022-10-16T14:13:06;18.10;68.30
40085;DHT22;25786;51.504;7.344;2022-10-16T14:15:33;18.10;68.10
40085;DHT22;25786;51.504;7.344;2022-10-16T14:17:59;18.10;67.40
40085;DHT22;25786;51.504;7.344;2022-10-16T14:20:29;18.20;67.00
40085;DHT22;25786;51.504;7.344;2022-10-16T14:23:00;18.20;66.30
40085;DHT22;25786;51.504;7.344;2022-10-16T14:25:27;18.30;65.90
40085;DHT22;25786;51.504;7.344;2022-10-16T14:30:27;18.30;65.50
40085;DHT22;25786;51.504;7.344;2022-10-16T14:32:54;18.20;66.30
40085;DHT22;25786;51.504;7.344;2022-10-16T14:35:28;18.10;67.20
40085;DHT22;25786;51.504;7.344;2022-10-16T14:37:54;18.10;67.10
40085;DHT22;25786;51.504;7.344;2022-10-16T14:40:21;18.00;67.90
40085;DHT22;25786;51.504;7.344;2022-10-16T14:42:48;17.90;68.30
40085;DHT22;25786;51.504;7.344;2022-10-16T14:45:15;17.90;69.60
40085;DHT22;25786;51.504;7.344;2022-10-16T14:47:50;17.60;69.90
40085;DHT22;25786;51.504;7.344;2022-10-16T14:50:17;17.60;69.70
40085;DHT22;25786;51.504;7.344;2022-10-16T14:52:42;17.60;70.50
40085;DHT22;25786;51.504;7.344;2022-10-16T14:55:09;17.80;69.60
40085;DHT22;25786;51.504;7.344;2022-10-16T14:57:35;17.80;70.50
40085;DHT22;25786;51.504;7.344;2022-10-16T15:00:02;17.70;71.20
40085;DHT22;25786;51.504;7.344;2022-10-16T15:02:28;17.80;72.00
40085;DHT22;25786;51.504;7.344;2022-10-16T15:04:55;17.80;71.90
40085;DHT22;25786;51.504;7.344;2022-10-16T15:07:20;17.70;72.50
40085;DHT22;25786;51.504;7.344;2022-10-16T15:09:46;17.80;70.70
40085;DHT22;25786;51.504;7.344;2022-10-16T15:12:11;17.70;71.00
40085;DHT22;25786;51.504;7.344;2022-10-16T15:14:37;17.60;71.60
40085;DHT22;25786;51.504;7.344;2022-10-16T15:17:03;17.60;71.90
40085;DHT22;25786;51.504;7.344;2022-10-16T15:19:28;17.50;73.20
40085;DHT22;25786;51.504;7.344;2022-10-16T15:21:54;17.50;73.80
40085;DHT22;25786;51.504;7.344;2022-10-16T15:24:19;17.40;75.10
40085;DHT22;25786;51.504;7.344;2022-10-16T15:26:45;17.30;75.80
40085;DHT22;25786;51.504;7.344;2022-10-16T15:29:14;17.30;76.70
40085;DHT22;25786;51.504;7.344;2022-10-16T15:31:40;17.20;76.60
40085;DHT22;25786;51.504;7.344;2022-10-16T15:34:08;17.20;77.40
40085;DHT22;25786;51.504;7.344;2022-10-16T15:36:35;17.20;77.40
40085;DHT22;25786;51.504;7.344;2022-10-16T15:39:02;17.20;77.90
40085;DHT22;25786;51.504;7.344;2022-10-16T15:41:28;17.20;78.50
40085;DHT22;25786;51.504;7.344;2022-10-16T15:43:53;17.20;78.80
40085;DHT22;25786;51.504;7.344;2022-10-16T15:46:20;17.20;79.00
40085;DHT22;25786;51.504;7.344;2022-10-16T15:48:46;17.10;79.40
40085;DHT22;25786;51.504;7.344;2022-10-16T15:51:12;17.10;79.90
40085;DHT22;25786;51.504;7.344;2022-10-16T15:53:37;17.10;80.10
40085;DHT22;25786;51.504;7.344;2022-10-16T15:56:03;17.00;80.30
40085;DHT22;25786;51.504;7.344;2022-10-16T15:58:29;16.90;79.80
40085;DHT22;25786;51.504;7.344;2022-10-16T16:00:59;16.80;80.40
40085;DHT22;25786;51.504;7.344;2022-10-16T16:03:26;16.90;80.70
40085;DHT22;25786;51.504;7.344;2022-10-16T16:05:52;16.80;81.20
40085;DHT22;25786;51.504;7.344;2022-10-16T16:08:17;16.80;81.50
40085;DHT22;25786;51.504;7.344;2022-10-16T16:10:43;16.70;81.00
40085;DHT22;25786;51.504;7.344;2022-10-16T16:13:08;16.80;81.30
40085;DHT22;25786;51.504;7.344;2022-10-16T16:15:34;16.80;81.60
40085;DHT22;25786;51.504;7.344;2022-10-16T16:17:59;16.80;82.20
40085;DHT22;25786;51.504;7.344;2022-10-16T16:20:26;16.80;82.50
40085;DHT22;25786;51.504;7.344;2022-10-16T16:22:52;16.60;82.60
40085;DHT22;25786;51.504;7.344;2022-10-16T16:25:17;16.60;82.60
40085;DHT22;25786;51.504;7.344;2022-10-16T16:27:43;16.60;82.70
40085;DHT22;25786;51.504;7.344;2022-10-16T16:30:10;16.60;82.90
40085;DHT22;25786;51.504;7.344;2022-10-16T16:32:36;16.50;83.10
40085;DHT22;25786;51.504;7.344;2022-10-16T16:35:02;16.50;83.30
40085;DHT22;25786;51.504;7.344;2022-10-16T16:37:28;16.50;83.30
40085;DHT22;25786;51.504;7.344;2022-10-16T16:39:53;16.50;83.60
40085;DHT22;25786;51.504;7.344;2022-10-16T16:42:20;16.50;83.90
40085;DHT22;25786;51.504;7.344;2022-10-16T16:44:47;16.50;84.30
40085;DHT22;25786;51.504;7.344;2022-10-16T16:47:12;16.40;84.40
40085;DHT22;25786;51.504;7.344;2022-10-16T16:49:38;16.40;84.60
40085;DHT22;25786;51.504;7.344;2022-10-16T16:52:03;16.50;84.60
40085;DHT22;25786;51.504;7.344;2022-10-16T16:54:29;16.40;84.80
40085;DHT22;25786;51.504;7.344;2022-10-16T16:56:54;16.40;84.90
40085;DHT22;25786;51.504;7.344;2022-10-16T16:59:20;16.30;85.00
40085;DHT22;25786;51.504;7.344;2022-10-16T17:01:47;16.30;85.30
40085;DHT22;25786;51.504;7.344;2022-10-16T17:04:12;16.20;85.30
40085;DHT22;25786;51.504;7.344;2022-10-16T17:06:40;16.40;83.60
40085;DHT22;25786;51.504;7.344;2022-10-16T17:09:06;16.30;84.20